Portada
METAR-TAF:

METAR-TAF

Aeroports :

Port Vila, Éfaté, Vanuatu

latitud: 17-42S, longitud: 168-18E, altitud: 20 m

Observació

L'informe es va fer fa 32 minuts, a les 14:00 UTC
Vent 8 kt del Est
Temperatura 22°C
Humitat 88%
Pressió 1015 hPa
Visibilitat 10 km o més
Cel ennuvolat a una alçada de 2000 ft

METAR: NVVV 211400Z 10008KT 9999 BKN020 22/20 Q1015

Hora: 01:32 (14:32 UTC)

Pronòstic

L'informe es va fer fa 4 hores i 32 minuts, a les 10:00 UTC
Pronòstic vàlid del 21 a les 12 UTC al 22 a les 12 UTC
Vent 15 kt del Est
Visibilitat: 9000 m
Núvols disperses a una alçada de 2000 ft
Cel ennuvolat a una alçada de 1800 ft
xàfecs de pluja

TAF: NVVV 211000Z 2112/2212 09015KT 9999 SCT020 INTER 2112/2118 9000 -SHRA BKN018

Observacions i pronòstics meteorològics de més de 4000 aeroports (METAR i TAF).

Les estacions disponibles són els punts grocs i vermells al mapa.

Posi el ratolí al punt desitjat per veure el nom de l'estació.

Feu clic per veure les observacions i els pronòstics meteorològics.

Per canviar el mapa: feu clic els botons verds amb una creu de color negre per apropar; al botó verd amb un guió per allunyar la imatge; o en les fletxes verdes per a mapes adjacents.


METAR-TAF: